Time;durP1;ratioP1;P1;durP2;ratioP2;P2;SDS_P1;SDS_P2;PMS_P1;PMS_P2;Temp;Humidity;BMP_temperature;BMP_pressure;BME280_temperature;BME280_humidity;BME280_pressure;Samples;Min_cycle;Max_cycle;Signal;HPM_P1;HPM_P2
2022/07/27 00:01:14;;;;;;;0.40;0.40;;;14.80;99.90;;;;;;4973225;28;20137;-74
2022/07/27 00:03:42;;;;;;;0.73;0.57;;;14.80;99.90;;;;;;4975332;28;20033;-73
2022/07/27 00:06:07;;;;;;;3.30;0.57;;;14.80;99.90;;;;;;4976103;28;20035;-74
2022/07/27 00:08:34;;;;;;;0.93;0.60;;;14.70;99.90;;;;;;4975515;28;20509;-74
2022/07/27 00:10:59;;;;;;;3.50;0.77;;;14.80;99.90;;;;;;4975731;28;20046;-73
2022/07/27 00:13:25;;;;;;;0.70;0.50;;;14.70;99.90;;;;;;4975411;28;20027;-73
2022/07/27 00:15:51;;;;;;;1.08;0.50;;;14.70;99.90;;;;;;4973567;28;20024;-73
2022/07/27 00:18:17;;;;;;;0.93;0.57;;;14.60;99.90;;;;;;4975204;28;20058;-73
2022/07/27 00:20:42;;;;;;;7.13;0.73;;;14.60;99.90;;;;;;4973811;28;20046;-72
2022/07/27 00:23:08;;;;;;;4.50;0.75;;;14.60;99.90;;;;;;4974796;28;20031;-73
2022/07/27 00:25:34;;;;;;;2.45;0.57;;;14.50;99.90;;;;;;4975827;28;20102;-73
2022/07/27 00:28:00;;;;;;;0.88;0.47;;;14.50;99.90;;;;;;4975266;28;20502;-73
2022/07/27 00:30:26;;;;;;;2.50;0.73;;;14.50;99.90;;;;;;4975055;28;20073;-73
2022/07/27 00:32:52;;;;;;;0.68;0.45;;;14.50;99.90;;;;;;4975293;28;20065;-74
2022/07/27 00:35:18;;;;;;;4.35;0.40;;;14.50;99.90;;;;;;4974457;28;20091;-75
2022/07/27 00:37:44;;;;;;;2.47;0.55;;;14.40;99.90;;;;;;4974903;28;20035;-74
2022/07/27 00:40:10;;;;;;;0.80;0.63;;;14.40;99.90;;;;;;4974572;28;20144;-73
2022/07/27 00:42:36;;;;;;;3.00;0.90;;;14.40;99.90;;;;;;4974387;28;20031;-73
2022/07/27 00:45:04;;;;;;;6.55;0.52;;;14.40;99.90;;;;;;4974113;28;20059;-74
2022/07/27 00:47:30;;;;;;;10.35;1.42;;;14.40;99.90;;;;;;4974614;28;20032;-73
2022/07/27 00:49:57;;;;;;;1.02;0.50;;;14.40;99.90;;;;;;4974477;28;20459;-73
2022/07/27 00:52:23;;;;;;;2.92;0.47;;;14.40;99.90;;;;;;4974766;28;20062;-73
2022/07/27 00:54:49;;;;;;;0.70;0.30;;;14.40;99.90;;;;;;4974772;28;20059;-73
2022/07/27 00:57:16;;;;;;;2.08;0.80;;;14.30;99.90;;;;;;4974172;28;20031;-72
2022/07/27 00:59:42;;;;;;;2.40;0.98;;;14.20;99.90;;;;;;4974599;28;20451;-73
2022/07/27 01:02:08;;;;;;;1.80;0.98;;;14.20;99.90;;;;;;4973773;28;20082;-72
2022/07/27 01:04:34;;;;;;;0.95;0.40;;;14.30;99.90;;;;;;4973826;28;20027;-74
2022/07/27 01:07:01;;;;;;;1.65;0.75;;;14.20;99.90;;;;;;4974442;28;20054;-73
2022/07/27 01:12:16;;;;;;;3.17;0.80;;;14.20;99.90;;;;;;4974332;28;20042;-73
2022/07/27 01:14:42;;;;;;;0.25;0.25;;;14.20;99.90;;;;;;4973898;28;20145;-73
2022/07/27 01:17:07;;;;;;;9.57;0.80;;;14.10;99.90;;;;;;4974250;28;21164;-72
2022/07/27 01:19:34;;;;;;;1.38;0.82;;;14.10;99.90;;;;;;4973811;28;20038;-73
2022/07/27 01:22:04;;;;;;;1.42;0.73;;;14.10;99.90;;;;;;4974412;28;20058;-72
2022/07/27 01:24:30;;;;;;;0.95;0.50;;;14.10;99.90;;;;;;4973611;28;20023;-72
2022/07/27 01:26:55;;;;;;;0.60;0.45;;;14.00;99.90;;;;;;4973778;28;20073;-73
2022/07/27 01:29:21;;;;;;;4.43;1.10;;;14.00;99.90;;;;;;4974131;28;20482;-73
2022/07/27 01:31:47;;;;;;;2.22;0.55;;;14.00;99.90;;;;;;4973418;28;20030;-73
2022/07/27 01:34:12;;;;;;;2.63;1.10;;;14.00;99.90;;;;;;4973644;28;20083;-72
2022/07/27 01:36:38;;;;;;;8.10;0.63;;;14.00;99.90;;;;;;4973782;28;20070;-73
2022/07/27 01:39:04;;;;;;;2.50;0.70;;;14.00;99.90;;;;;;4973376;28;20039;-73
2022/07/27 01:41:29;;;;;;;0.77;0.50;;;13.90;99.90;;;;;;4973673;28;20035;-73
2022/07/27 01:43:55;;;;;;;3.35;0.80;;;13.90;99.90;;;;;;4973600;28;20633;-73
2022/07/27 01:46:21;;;;;;;3.38;0.88;;;13.90;99.90;;;;;;4973132;28;20030;-73
2022/07/27 01:48:47;;;;;;;13.63;1.25;;;14.00;99.90;;;;;;4973328;28;20023;-73
2022/07/27 01:51:13;;;;;;;0.55;0.35;;;14.00;99.90;;;;;;4973640;28;20021;-73
2022/07/27 01:53:39;;;;;;;0.80;0.55;;;13.90;99.90;;;;;;4973700;28;20037;-73
2022/07/27 01:56:12;;;;;;;1.50;0.68;;;13.90;99.90;;;;;;4973711;28;20158;-74
2022/07/27 01:58:39;;;;;;;3.92;0.88;;;13.90;99.90;;;;;;4956127;28;20061;-71
2022/07/27 02:01:05;;;;;;;0.65;0.43;;;13.90;99.90;;;;;;4972610;28;20498;-72
2022/07/27 02:03:31;;;;;;;0.73;0.45;;;13.90;99.90;;;;;;4973293;28;20031;-74
2022/07/27 02:05:57;;;;;;;3.05;0.70;;;13.90;99.90;;;;;;4972685;28;20038;-72
2022/07/27 02:08:23;;;;;;;1.77;0.75;;;13.90;99.90;;;;;;4972930;28;20036;-72
2022/07/27 02:13:33;;;;;;;5.32;0.93;;;13.90;99.90;;;;;;4973098;28;20033;-74
2022/07/27 02:15:59;;;;;;;1.63;0.55;;;13.90;99.90;;;;;;4973499;28;20109;-73
2022/07/27 02:18:25;;;;;;;3.22;0.93;;;13.80;99.90;;;;;;4973338;28;20034;-75
2022/07/27 02:20:51;;;;;;;0.73;0.60;;;13.80;99.90;;;;;;4972872;28;20083;-74
2022/07/27 02:23:17;;;;;;;0.60;0.50;;;13.80;99.90;;;;;;4972967;28;20028;-74
2022/07/27 02:25:43;;;;;;;3.92;0.68;;;13.70;99.90;;;;;;4956160;28;20030;-73
2022/07/27 02:28:08;;;;;;;1.85;0.65;;;13.70;99.90;;;;;;4955885;28;20058;-71
2022/07/27 02:30:34;;;;;;;3.35;0.73;;;13.70;99.90;;;;;;4972405;28;20035;-72
2022/07/27 02:32:59;;;;;;;0.93;0.63;;;13.60;99.90;;;;;;4972841;28;21145;-73
2022/07/27 02:35:25;;;;;;;3.83;0.63;;;13.60;99.90;;;;;;4972802;28;20043;-73
2022/07/27 02:37:51;;;;;;;0.68;0.50;;;13.50;99.90;;;;;;4973205;28;20035;-74
2022/07/27 02:40:17;;;;;;;0.95;0.60;;;13.50;99.90;;;;;;4972747;28;20043;-73
2022/07/27 02:42:43;;;;;;;1.70;0.60;;;13.50;99.90;;;;;;4973621;28;20033;-74
2022/07/27 02:45:09;;;;;;;4.68;0.40;;;13.40;99.90;;;;;;4959562;28;20046;-74
2022/07/27 02:47:35;;;;;;;3.45;0.73;;;13.40;99.90;;;;;;4976555;28;20543;-72
2022/07/27 02:50:01;;;;;;;2.70;0.63;;;13.40;99.90;;;;;;4976369;28;20051;-74
2022/07/27 02:52:27;;;;;;;0.47;0.30;;;13.40;99.90;;;;;;4976729;28;20018;-73
2022/07/27 02:54:53;;;;;;;2.05;0.45;;;13.40;99.90;;;;;;4976558;28;20379;-73
2022/07/27 02:57:19;;;;;;;1.58;0.75;;;13.40;99.90;;;;;;4976933;28;20086;-74
2022/07/27 02:59:45;;;;;;;1.63;0.82;;;13.40;99.90;;;;;;4976379;28;20534;-73
2022/07/27 03:02:11;;;;;;;6.97;0.88;;;13.40;99.90;;;;;;4959406;28;20027;-73
2022/07/27 03:04:37;;;;;;;0.30;0.30;;;13.50;99.90;;;;;;4959491;28;20058;-72
2022/07/27 03:07:02;;;;;;;1.45;0.52;;;13.40;99.90;;;;;;4976279;28;20055;-73
2022/07/27 03:09:28;;;;;;;1.33;0.70;;;13.50;99.90;;;;;;4976358;28;20030;-73
2022/07/27 03:11:53;;;;;;;0.93;0.65;;;13.40;99.90;;;;;;4976141;28;20037;-73
2022/07/27 03:14:19;;;;;;;2.50;0.95;;;13.40;99.90;;;;;;4965891;28;20027;-73
2022/07/27 03:16:45;;;;;;;6.68;1.13;;;13.40;99.90;;;;;;4976580;28;20023;-71
2022/07/27 03:19:11;;;;;;;2.35;0.60;;;13.40;99.90;;;;;;4976521;28;20438;-72
2022/07/27 03:21:37;;;;;;;7.75;0.57;;;13.30;99.90;;;;;;4958690;28;20614;-72
2022/07/27 03:24:03;;;;;;;3.80;1.23;;;13.30;99.90;;;;;;4958571;28;20035;-73
2022/07/27 03:26:29;;;;;;;1.33;0.70;;;13.30;99.90;;;;;;4976604;28;20035;-72
2022/07/27 03:28:56;;;;;;;0.65;0.45;;;13.20;99.90;;;;;;4975843;28;20016;-72
2022/07/27 03:31:21;;;;;;;4.05;0.65;;;13.10;99.90;;;;;;4975954;28;20561;-73
2022/07/27 03:33:48;;;;;;;5.10;0.82;;;13.10;99.90;;;;;;4975407;28;20079;-73
2022/07/27 03:36:13;;;;;;;1.75;0.75;;;13.10;99.90;;;;;;4976217;28;20050;-72
2022/07/27 03:38:39;;;;;;;0.98;0.55;;;13.10;99.90;;;;;;4975744;28;20030;-72
2022/07/27 03:41:05;;;;;;;1.58;0.88;;;13.10;99.90;;;;;;4975912;28;20046;-72
2022/07/27 03:43:31;;;;;;;1.02;0.68;;;13.10;99.90;;;;;;4975906;28;20027;-73
2022/07/27 03:45:57;;;;;;;2.67;0.60;;;13.00;99.90;;;;;;4975639;28;20034;-73
2022/07/27 03:48:22;;;;;;;4.97;1.05;;;13.00;99.90;;;;;;4975086;28;20070;-73
2022/07/27 03:50:48;;;;;;;4.50;0.77;;;13.00;99.90;;;;;;4975571;28;20126;-74
2022/07/27 03:53:16;;;;;;;0.35;0.30;;;13.00;99.90;;;;;;4976212;28;20062;-74
2022/07/27 03:55:42;;;;;;;3.13;1.23;;;13.00;99.90;;;;;;4975718;28;20391;-72
2022/07/27 03:58:07;;;;;;;2.13;0.63;;;13.00;99.90;;;;;;4975348;28;20034;-73
2022/07/27 04:00:33;;;;;;;1.52;0.40;;;12.90;99.90;;;;;;4975457;28;20109;-72
2022/07/27 04:02:58;;;;;;;1.63;0.93;;;12.90;99.90;;;;;;4975601;28;20030;-74
2022/07/27 04:05:24;;;;;;;1.15;0.52;;;12.80;99.90;;;;;;4975298;28;20051;-73
2022/07/27 04:07:50;;;;;;;1.95;0.57;;;12.80;99.90;;;;;;4975336;28;20082;-72
2022/07/27 04:10:17;;;;;;;4.85;0.82;;;12.80;99.90;;;;;;4975386;28;20495;-74
2022/07/27 04:12:42;;;;;;;10.80;1.08;;;12.80;99.90;;;;;;4975239;28;20538;-72
2022/07/27 04:15:09;;;;;;;5.32;0.77;;;12.80;99.90;;;;;;4975235;28;20035;-73
2022/07/27 04:17:34;;;;;;;0.32;0.32;;;12.70;99.90;;;;;;4975041;28;20023;-73
2022/07/27 04:20:00;;;;;;;2.05;0.77;;;12.80;99.90;;;;;;4975037;28;20042;-73
2022/07/27 04:22:26;;;;;;;0.38;0.38;;;12.80;99.90;;;;;;4975067;28;20024;-73
2022/07/27 04:24:51;;;;;;;0.95;0.65;;;12.80;99.90;;;;;;4974984;28;20042;-73
2022/07/27 04:27:17;;;;;;;0.95;0.80;;;12.80;99.90;;;;;;4975074;28;20035;-74
2022/07/27 04:29:43;;;;;;;1.63;0.57;;;12.80;99.90;;;;;;4975434;28;20031;-73
2022/07/27 04:32:08;;;;;;;1.00;0.90;;;12.80;99.90;;;;;;4974965;28;20078;-73
2022/07/27 04:34:34;;;;;;;7.15;1.27;;;12.80;99.90;;;;;;4974226;28;20053;-72
2022/07/27 04:37:00;;;;;;;1.25;0.75;;;12.90;99.90;;;;;;4974849;28;20031;-73
2022/07/27 04:39:26;;;;;;;3.15;0.98;;;12.90;99.90;;;;;;4974409;28;20464;-72
2022/07/27 04:41:51;;;;;;;5.30;1.25;;;12.90;99.90;;;;;;4974800;28;20036;-74
2022/07/27 04:44:17;;;;;;;9.43;1.13;;;12.90;99.90;;;;;;4974514;28;20407;-73
2022/07/27 04:46:42;;;;;;;12.70;0.98;;;12.90;99.90;;;;;;4957269;28;20042;-73
2022/07/27 04:49:08;;;;;;;1.85;0.90;;;13.00;99.90;;;;;;4974564;28;20024;-72
2022/07/27 04:51:34;;;;;;;0.80;0.68;;;13.10;99.90;;;;;;4974073;28;20582;-73
2022/07/27 04:54:00;;;;;;;1.52;0.82;;;13.10;99.90;;;;;;4974261;28;20696;-72
2022/07/27 04:56:26;;;;;;;1.40;0.85;;;13.10;99.90;;;;;;4973942;28;20058;-72
2022/07/27 04:58:52;;;;;;;3.95;1.10;;;13.20;99.90;;;;;;4974620;28;20101;-73
2022/07/27 05:01:18;;;;;;;1.00;0.50;;;13.20;99.90;;;;;;4974358;28;20101;-74
2022/07/27 05:03:43;;;;;;;2.75;1.00;;;13.20;99.90;;;;;;4974570;28;20177;-73
2022/07/27 05:06:09;;;;;;;1.08;0.70;;;13.30;99.90;;;;;;4973839;28;20381;-74
2022/07/27 05:08:35;;;;;;;5.93;1.27;;;13.40;99.90;;;;;;4974094;28;20403;-73
2022/07/27 05:11:01;;;;;;;2.30;0.75;;;13.40;99.90;;;;;;4974262;28;20031;-74
2022/07/27 05:13:26;;;;;;;2.50;0.90;;;13.50;99.90;;;;;;4974108;28;20039;-73
2022/07/27 05:15:52;;;;;;;1.40;0.55;;;13.50;99.90;;;;;;4973855;28;20030;-74
2022/07/27 05:18:17;;;;;;;2.83;0.95;;;13.50;99.90;;;;;;4974632;28;20054;-73
2022/07/27 05:20:44;;;;;;;3.25;0.85;;;13.60;99.90;;;;;;4974241;28;20464;-75
2022/07/27 05:23:10;;;;;;;1.17;0.65;;;13.60;99.90;;;;;;4972239;28;20038;-73
2022/07/27 05:25:36;;;;;;;3.33;1.17;;;13.60;99.90;;;;;;4973490;28;20035;-73
2022/07/27 05:28:01;;;;;;;0.55;0.43;;;13.70;99.90;;;;;;4956949;28;20620;-73
2022/07/27 05:30:27;;;;;;;0.68;0.50;;;13.70;99.90;;;;;;4973341;28;20023;-73
2022/07/27 05:32:53;;;;;;;2.20;0.40;;;13.70;99.90;;;;;;4973248;28;20114;-73
2022/07/27 05:35:19;;;;;;;0.90;0.77;;;13.70;99.90;;;;;;4968118;28;20070;-74
2022/07/27 05:37:46;;;;;;;4.82;0.95;;;13.80;99.90;;;;;;4971431;28;20054;-73
2022/07/27 05:40:12;;;;;;;1.90;0.70;;;13.80;99.90;;;;;;4972775;28;20043;-72
2022/07/27 05:42:39;;;;;;;1.08;0.50;;;13.80;99.90;;;;;;4974162;28;20058;-73
2022/07/27 05:45:06;;;;;;;1.77;0.80;;;13.80;99.90;;;;;;4972048;28;20177;-72
2022/07/27 05:47:31;;;;;;;1.30;0.80;;;13.90;99.90;;;;;;4968338;28;20423;-71
2022/07/27 05:49:57;;;;;;;1.10;0.70;;;13.90;99.90;;;;;;4973354;28;20423;-71
2022/07/27 05:52:23;;;;;;;3.75;0.73;;;13.90;99.90;;;;;;4972531;28;20042;-74
2022/07/27 05:54:48;;;;;;;1.17;0.82;;;14.00;99.90;;;;;;4972400;28;20034;-72
2022/07/27 05:57:14;;;;;;;7.80;0.95;;;14.00;99.90;;;;;;4970282;28;20058;-72
2022/07/27 05:59:41;;;;;;;3.95;1.00;;;14.00;99.90;;;;;;4955680;28;20053;-73
2022/07/27 06:02:07;;;;;;;0.73;0.50;;;14.10;99.90;;;;;;4973188;28;20022;-71
2022/07/27 06:04:33;;;;;;;0.80;0.50;;;14.10;99.90;;;;;;4955841;28;20030;-72
2022/07/27 06:09:44;;;;;;;;;;;14.30;99.90;;;;;;4974772;28;20038;-72
2022/07/27 06:12:09;;;;;;;1.33;0.60;;;14.20;99.90;;;;;;4972058;28;19914;-71
2022/07/27 06:14:35;;;;;;;2.95;0.60;;;14.30;99.90;;;;;;4972906;28;20042;-70
2022/07/27 06:17:00;;;;;;;2.30;1.13;;;14.40;99.90;;;;;;4971149;28;20095;-74
2022/07/27 06:19:26;;;;;;;3.17;0.85;;;14.40;99.90;;;;;;4966053;28;20027;-70
2022/07/27 06:21:53;;;;;;;5.22;0.60;;;14.50;99.90;;;;;;4962406;28;20050;-71
2022/07/27 06:24:18;;;;;;;1.58;0.75;;;14.60;99.90;;;;;;4961596;28;20105;-72
2022/07/27 06:26:45;;;;;;;0.60;0.60;;;14.70;99.90;;;;;;4961814;28;20027;-72
2022/07/27 06:29:11;;;;;;;1.08;0.43;;;14.80;99.90;;;;;;4961269;28;20058;-71
2022/07/27 06:31:36;;;;;;;1.65;0.45;;;14.90;99.90;;;;;;4959883;28;20541;-70
2022/07/27 06:34:02;;;;;;;6.90;0.57;;;15.00;99.90;;;;;;4961595;28;20047;-71
2022/07/27 06:36:29;;;;;;;5.97;0.70;;;15.10;99.90;;;;;;4963239;28;20700;-74
2022/07/27 06:38:54;;;;;;;4.07;0.73;;;15.20;99.90;;;;;;4945316;28;20046;-70
2022/07/27 06:41:21;;;;;;;2.50;0.73;;;15.20;99.90;;;;;;4963880;28;20047;-73
2022/07/27 06:43:47;;;;;;;0.90;0.50;;;15.40;99.90;;;;;;4963267;28;20039;-71
2022/07/27 06:46:13;;;;;;;0.90;0.60;;;15.30;99.90;;;;;;4963702;28;20102;-72
2022/07/27 06:48:39;;;;;;;5.85;0.88;;;15.40;99.90;;;;;;4959710;28;20047;-70
2022/07/27 06:51:05;;;;;;;4.57;0.65;;;15.40;99.90;;;;;;4964706;28;20068;-73
2022/07/27 06:53:34;;;;;;;1.95;0.30;;;15.50;99.90;;;;;;4947451;28;20369;-73
2022/07/27 06:56:02;;;;;;;2.20;0.35;;;15.50;99.90;;;;;;4968850;28;20046;-72
2022/07/27 06:58:33;;;;;;;2.63;0.57;;;15.50;99.90;;;;;;4950014;28;20065;-74
2022/07/27 07:01:01;;;;;;;0.80;0.65;;;15.60;99.90;;;;;;4968562;28;20035;-74
2022/07/27 07:03:28;;;;;;;1.02;0.45;;;15.50;99.90;;;;;;4969278;28;20038;-73
2022/07/27 07:05:53;;;;;;;4.50;0.50;;;15.50;99.90;;;;;;4970089;28;20039;-72
2022/07/27 07:08:21;;;;;;;3.88;0.50;;;15.50;99.90;;;;;;4970615;28;20027;-72
2022/07/27 07:10:48;;;;;;;3.55;0.73;;;15.50;99.90;;;;;;4969550;28;20028;-72
2022/07/27 07:13:15;;;;;;;1.10;0.68;;;15.60;99.90;;;;;;4971156;28;20046;-72
2022/07/27 07:15:42;;;;;;;0.30;0.28;;;15.60;99.90;;;;;;4970363;28;20023;-71
2022/07/27 07:18:09;;;;;;;0.30;0.22;;;15.70;99.90;;;;;;4970230;28;20015;-70
2022/07/27 07:20:36;;;;;;;0.98;0.40;;;15.80;99.90;;;;;;4969135;28;20575;-71
2022/07/27 07:23:03;;;;;;;0.30;0.28;;;15.90;99.90;;;;;;4953292;28;20023;-70
2022/07/27 07:25:28;;;;;;;3.20;0.93;;;15.80;99.90;;;;;;4971219;28;20026;-71
2022/07/27 07:27:54;;;;;;;1.35;0.65;;;15.90;99.90;;;;;;4970439;28;20053;-71
2022/07/27 07:30:21;;;;;;;2.10;0.47;;;15.90;99.90;;;;;;4973419;28;20673;-71
2022/07/27 07:32:47;;;;;;;8.13;0.95;;;16.00;99.90;;;;;;4973333;28;20018;-73
2022/07/27 07:35:13;;;;;;;6.07;0.63;;;15.90;99.90;;;;;;4974708;28;20071;-71
2022/07/27 07:37:38;;;;;;;1.10;0.77;;;16.10;99.90;;;;;;4972208;28;20046;-74
2022/07/27 07:40:05;;;;;;;1.65;0.55;;;16.20;99.90;;;;;;4957113;28;20043;-72
2022/07/27 07:42:31;;;;;;;3.03;0.90;;;16.20;99.90;;;;;;4971128;28;20030;-73
2022/07/27 07:44:57;;;;;;;1.02;0.55;;;16.20;99.90;;;;;;4975806;28;20054;-71
2022/07/27 07:47:26;;;;;;;2.47;0.57;;;16.30;99.90;;;;;;4956188;28;20095;-70
2022/07/27 07:49:52;;;;;;;0.40;0.40;;;16.30;99.90;;;;;;4957666;28;20022;-71
2022/07/27 07:52:18;;;;;;;1.23;0.52;;;16.40;99.90;;;;;;4974957;28;20054;-70
2022/07/27 07:54:43;;;;;;;1.10;0.60;;;16.40;99.90;;;;;;4975317;28;20059;-70
2022/07/27 07:57:09;;;;;;;2.25;0.65;;;16.50;99.90;;;;;;4973986;28;20039;-72
2022/07/27 07:59:34;;;;;;;1.00;0.52;;;16.50;99.90;;;;;;4956048;28;20122;-71
2022/07/27 08:02:02;;;;;;;9.95;0.68;;;16.60;99.90;;;;;;4958420;28;20030;-70
2022/07/27 08:04:27;;;;;;;2.40;0.60;;;16.80;99.90;;;;;;4974561;28;20031;-73
2022/07/27 08:06:53;;;;;;;1.77;0.50;;;16.80;99.90;;;;;;4972993;28;20090;-72
2022/07/27 08:09:20;;;;;;;0.40;0.22;;;16.90;99.90;;;;;;4974598;28;20038;-71
2022/07/27 08:11:56;;;;;;;2.72;0.80;;;16.90;99.90;;;;;;4972325;28;20031;-73
2022/07/27 08:14:22;;;;;;;1.23;0.57;;;17.00;99.90;;;;;;4972067;28;20042;-72
2022/07/27 08:16:48;;;;;;;1.08;0.38;;;17.10;99.90;;;;;;4974465;28;20756;-73
2022/07/27 08:19:14;;;;;;;0.55;0.43;;;17.10;99.90;;;;;;4973843;28;20031;-74
2022/07/27 08:21:39;;;;;;;2.35;0.65;;;17.20;99.90;;;;;;4954882;28;20482;-72
2022/07/27 08:24:05;;;;;;;1.42;0.60;;;17.30;99.90;;;;;;4973264;28;20153;-75
2022/07/27 08:26:31;;;;;;;6.95;0.68;;;17.30;99.90;;;;;;4957748;28;20038;-70
2022/07/27 08:28:56;;;;;;;0.85;0.52;;;17.30;99.90;;;;;;4975570;28;20040;-71
2022/07/27 08:31:23;;;;;;;0.80;0.50;;;17.30;99.90;;;;;;4974754;28;21981;-73
2022/07/27 08:33:53;;;;;;;6.25;0.60;;;17.10;99.90;;;;;;4973807;28;20074;-73
2022/07/27 08:36:20;;;;;;;1.90;0.50;;;17.00;99.90;;;;;;4973890;28;20033;-78
2022/07/27 08:38:47;;;;;;;2.05;0.60;;;16.90;99.90;;;;;;4974511;28;20443;-74
2022/07/27 08:41:14;;;;;;;5.10;0.55;;;16.90;99.90;;;;;;4970801;28;20035;-74
2022/07/27 08:43:43;;;;;;;1.90;0.73;;;17.00;99.90;;;;;;4972190;28;20426;-73
2022/07/27 08:46:10;;;;;;;2.70;0.68;;;17.00;99.90;;;;;;4974272;28;20078;-73
2022/07/27 08:48:37;;;;;;;10.20;0.90;;;17.20;99.90;;;;;;4965996;28;20422;-74
2022/07/27 08:51:06;;;;;;;0.65;0.65;;;17.30;99.90;;;;;;4969902;28;20033;-73
2022/07/27 08:53:32;;;;;;;0.63;0.50;;;17.40;99.90;;;;;;4973296;28;20026;-69
2022/07/27 08:55:58;;;;;;;0.63;0.52;;;17.40;99.90;;;;;;4973396;28;20109;-73
2022/07/27 08:58:24;;;;;;;0.60;0.60;;;17.50;99.90;;;;;;4971325;28;20031;-73
2022/07/27 09:00:50;;;;;;;7.53;0.70;;;17.60;99.90;;;;;;4952840;28;20070;-74
2022/07/27 09:03:17;;;;;;;1.70;0.85;;;17.70;99.90;;;;;;4971969;28;20117;-76
2022/07/27 09:05:45;;;;;;;1.38;0.47;;;17.70;99.90;;;;;;4952968;28;20023;-72
2022/07/27 09:08:12;;;;;;;8.13;1.08;;;17.70;99.90;;;;;;4969382;28;20051;-75
2022/07/27 09:10:40;;;;;;;1.33;0.52;;;17.60;99.90;;;;;;4970790;28;20023;-75
2022/07/27 09:13:26;;;;;;;1.48;0.70;;;17.70;99.90;;;;;;4970542;28;20034;-75
2022/07/27 09:15:55;;;;;;;4.18;0.90;;;17.90;99.90;;;;;;4967226;28;20035;-75
2022/07/27 09:18:23;;;;;;;1.42;0.60;;;18.20;99.90;;;;;;4970517;28;20082;-73
2022/07/27 09:21:09;;;;;;;9.68;0.95;;;18.40;99.90;;;;;;4970588;28;20423;-74
2022/07/27 09:23:36;;;;;;;6.32;1.42;;;18.40;99.90;;;;;;4971912;28;20051;-73
2022/07/27 09:26:13;;;;;;;4.22;0.73;;;18.30;99.90;;;;;;4971542;28;20415;-73
2022/07/27 09:28:39;;;;;;;0.88;0.45;;;18.20;99.90;;;;;;4972946;28;20027;-73
2022/07/27 09:31:07;;;;;;;4.85;0.70;;;18.10;99.90;;;;;;4956047;28;20050;-73
2022/07/27 09:33:44;;;;;;;3.63;0.90;;;17.90;99.90;;;;;;4973149;28;20046;-75
2022/07/27 09:36:10;;;;;;;1.58;0.93;;;17.80;99.90;;;;;;4934962;29;20036;-76
2022/07/27 09:38:36;;;;;;;5.05;0.82;;;17.70;99.90;;;;;;4931314;29;20032;-75
2022/07/27 09:41:04;;;;;;;9.70;0.45;;;17.70;99.90;;;;;;4935284;29;20052;-73
2022/07/27 09:43:32;;;;;;;0.40;0.30;;;17.90;99.90;;;;;;4932210;29;20032;-73
2022/07/27 09:46:08;;;;;;;0.47;0.30;;;18.10;99.90;;;;;;4931195;29;20055;-75
2022/07/27 09:48:34;;;;;;;0.45;0.35;;;18.30;99.90;;;;;;4931611;29;20044;-72
2022/07/27 09:51:02;;;;;;;0.63;0.40;;;18.60;99.90;;;;;;4931176;29;20054;-72
2022/07/27 09:53:33;;;;;;;1.55;0.80;;;18.80;99.90;;;;;;4934891;29;20020;-75
2022/07/27 09:56:15;;;;;;;3.08;0.82;;;18.60;99.90;;;;;;4933752;29;20036;-73
2022/07/27 09:59:01;;;;;;;1.42;0.30;;;18.40;99.90;;;;;;4932698;29;20025;-72
2022/07/27 10:01:33;;;;;;;1.70;0.57;;;18.40;99.90;;;;;;4934626;29;20044;-73
2022/07/27 10:04:02;;;;;;;1.27;0.45;;;18.70;99.90;;;;;;4933768;29;20028;-71
2022/07/27 10:06:28;;;;;;;5.70;0.73;;;18.80;99.90;;;;;;4933517;29;20032;-72
2022/07/27 10:08:55;;;;;;;4.40;0.85;;;18.70;99.90;;;;;;4932514;29;20385;-72
2022/07/27 10:11:23;;;;;;;0.30;0.30;;;18.60;99.90;;;;;;4929458;29;20032;-74
2022/07/27 10:13:51;;;;;;;0.28;0.20;;;18.60;99.90;;;;;;4930578;29;20088;-75
2022/07/27 10:16:20;;;;;;;5.57;0.60;;;18.60;99.90;;;;;;4934431;29;20028;-76
2022/07/27 10:19:00;;;;;;;1.20;0.73;;;18.80;99.90;;;;;;4932857;29;20028;-73
2022/07/27 10:21:26;;;;;;;1.45;0.45;;;19.00;99.90;;;;;;4937069;29;20036;-72
2022/07/27 10:23:57;;;;;;;0.70;0.50;;;19.30;99.90;;;;;;4933937;29;20125;-72
2022/07/27 10:26:23;;;;;;;1.77;0.63;;;19.50;99.90;;;;;;4931937;29;20036;-74
2022/07/27 10:28:52;;;;;;;2.70;0.52;;;19.50;99.90;;;;;;4930366;29;20034;-73
2022/07/27 10:31:21;;;;;;;1.85;0.75;;;19.40;99.90;;;;;;4932472;29;20111;-74
2022/07/27 10:33:49;;;;;;;3.17;0.95;;;19.10;99.90;;;;;;4936937;28;20435;-75
2022/07/27 10:36:22;;;;;;;0.38;0.30;;;19.00;99.90;;;;;;4972599;28;20035;-73
2022/07/27 10:38:50;;;;;;;2.20;0.80;;;19.20;99.90;;;;;;4971673;28;20027;-75
2022/07/27 10:41:23;;;;;;;0.93;0.50;;;19.50;99.90;;;;;;4970293;28;20410;-74
2022/07/27 10:43:50;;;;;;;0.77;0.50;;;19.70;99.90;;;;;;4973291;28;20031;-75
2022/07/27 10:46:22;;;;;;;1.00;0.50;;;19.70;99.90;;;;;;4954550;28;20456;-75
2022/07/27 10:48:48;;;;;;;1.30;0.50;;;19.70;99.90;;;;;;4972227;28;20042;-74
2022/07/27 10:51:15;;;;;;;1.05;0.93;;;19.50;99.90;;;;;;4972421;28;20027;-72
2022/07/27 10:53:42;;;;;;;0.45;0.20;;;19.40;99.90;;;;;;4971463;28;20035;-71
2022/07/27 10:56:08;;;;;;;0.20;0.20;;;19.50;99.90;;;;;;4971800;28;20387;-74
2022/07/27 10:58:34;;;;;;;6.97;1.00;;;19.60;99.90;;;;;;4971988;28;20057;-74
2022/07/27 11:01:02;;;;;;;6.25;0.82;;;19.70;99.90;;;;;;4971749;28;20055;-73
2022/07/27 11:03:33;;;;;;;1.27;0.32;;;19.70;99.90;;;;;;4971392;28;20019;-75
2022/07/27 11:06:11;;;;;;;2.05;0.95;;;19.80;99.90;;;;;;4975553;28;20030;-75
2022/07/27 11:08:42;;;;;;;2.38;0.50;;;19.80;99.90;;;;;;4974740;28;20035;-74
2022/07/27 11:11:12;;;;;;;1.83;0.55;;;19.80;99.90;;;;;;4974711;28;20027;-75
2022/07/27 11:13:37;;;;;;;1.65;0.40;;;19.70;99.90;;;;;;4959327;28;20042;-77
2022/07/27 11:16:09;;;;;;;0.70;0.40;;;19.50;99.90;;;;;;4957149;28;20023;-74
2022/07/27 11:18:37;;;;;;;1.08;0.28;;;19.40;99.90;;;;;;4975414;28;20074;-74
2022/07/27 11:21:24;;;;;;;3.92;0.75;;;19.30;99.90;;;;;;4975068;28;20039;-76
2022/07/27 11:23:53;;;;;;;4.50;0.50;;;19.30;99.90;;;;;;4975341;28;20023;-71
2022/07/27 11:26:20;;;;;;;0.45;0.10;;;19.20;99.90;;;;;;4975299;28;20078;-73
2022/07/27 11:28:46;;;;;;;1.25;0.40;;;19.20;99.90;;;;;;4974887;28;20528;-72
2022/07/27 11:31:12;;;;;;;3.20;0.73;;;19.30;99.90;;;;;;4974989;28;20050;-71
2022/07/27 11:33:59;;;;;;;9.32;0.60;;;19.30;99.90;;;;;;4974299;28;20023;-69
2022/07/27 11:36:41;;;;;;;1.35;0.52;;;19.40;99.90;;;;;;4974508;28;20042;-75
2022/07/27 11:39:11;;;;;;;3.50;0.57;;;19.40;99.90;;;;;;4973947;28;20090;-72
2022/07/27 11:41:37;;;;;;;3.42;0.65;;;19.40;99.90;;;;;;4974325;28;20039;-71
2022/07/27 11:44:08;;;;;;;1.83;0.50;;;19.60;99.90;;;;;;4974429;28;20022;-73
2022/07/27 11:46:42;;;;;;;3.33;0.57;;;19.80;99.90;;;;;;4972978;28;20035;-73
2022/07/27 11:49:10;;;;;;;;;;;19.80;99.90;;;;;;4974860;28;20027;-72
2022/07/27 11:51:44;;;;;;;8.13;0.45;;;19.80;99.90;;;;;;4975070;28;19929;-73
2022/07/27 11:54:26;;;;;;;;;;;19.90;99.90;;;;;;4976219;28;20019;-74
2022/07/27 11:56:54;;;;;;;1.02;0.47;;;19.90;99.90;;;;;;4973724;28;19910;-72
2022/07/27 11:59:22;;;;;;;0.30;0.25;;;19.70;99.90;;;;;;4973735;28;20057;-76
2022/07/27 12:01:54;;;;;;;3.80;0.95;;;19.80;99.90;;;;;;4974478;28;20043;-72
2022/07/27 12:04:27;;;;;;;1.15;0.47;;;19.90;99.90;;;;;;4974139;28;20043;-74
2022/07/27 12:07:00;;;;;;;0.32;0.10;;;20.20;99.90;;;;;;4953863;28;20027;-73
2022/07/27 12:09:28;;;;;;;3.97;0.70;;;20.40;99.90;;;;;;4973327;28;20528;-76
2022/07/27 12:12:08;;;;;;;1.25;0.45;;;20.70;99.90;;;;;;4970226;28;20035;-76
2022/07/27 12:14:40;;;;;;;0.57;0.30;;;20.70;99.90;;;;;;4967693;28;20042;-71
2022/07/27 12:17:36;;;;;;;1.48;0.25;;;20.50;99.90;;;;;;4970800;28;20035;-72
2022/07/27 12:20:05;;;;;;;1.35;0.60;;;20.20;99.90;;;;;;4943863;28;20145;-73
2022/07/27 12:22:39;;;;;;;0.38;0.28;;;20.10;99.90;;;;;;4970532;28;20495;-73
2022/07/27 12:25:09;;;;;;;;;;;20.10;99.90;;;;;;4949890;28;20035;-71
2022/07/27 12:27:36;;;;;;;0.47;0.30;;;20.40;99.90;;;;;;4972580;28;19910;-73
2022/07/27 12:30:09;;;;;;;0.60;0.55;;;20.60;99.90;;;;;;4969492;28;20055;-72
2022/07/27 12:32:42;;;;;;;1.10;0.45;;;20.80;99.90;;;;;;4974762;28;20031;-74
2022/07/27 12:35:20;;;;;;;1.30;0.70;;;21.20;99.90;;;;;;4962781;28;20057;-71
2022/07/27 12:37:46;;;;;;;1.52;0.40;;;21.60;99.90;;;;;;4975137;28;20023;-71
2022/07/27 12:40:17;;;;;;;6.38;0.52;;;21.90;99.90;;;;;;4972205;28;20058;-71
2022/07/27 12:42:43;;;;;;;1.17;0.38;;;21.80;99.90;;;;;;4974003;28;20046;-73
2022/07/27 12:45:18;;;;;;;2.65;0.70;;;21.60;99.90;;;;;;4971995;28;20026;-73
2022/07/27 12:47:44;;;;;;;5.82;0.52;;;21.40;99.90;;;;;;4961351;28;20032;-74
2022/07/27 12:50:15;;;;;;;1.45;0.30;;;21.60;99.90;;;;;;4974660;28;20130;-73
2022/07/27 12:52:50;;;;;;;0.43;0.43;;;21.80;99.90;;;;;;4972384;28;20031;-72
2022/07/27 12:55:19;;;;;;;0.50;0.30;;;22.00;99.90;;;;;;4970485;28;20098;-74
2022/07/27 12:57:46;;;;;;;0.10;0.05;;;22.30;99.90;;;;;;4971302;28;20106;-70